sensor_id;sensor_type;location;lat;lon;timestamp;P1;durP1;ratioP1;P2;durP2;ratioP2
60038;SDS011;45916;52.734;6.544;2023-06-14T00:02:03;7.88;;;3.42;;
60038;SDS011;45916;52.734;6.544;2023-06-14T00:04:29;6.68;;;3.50;;
60038;SDS011;45916;52.734;6.544;2023-06-14T00:06:56;7.88;;;3.67;;
60038;SDS011;45916;52.734;6.544;2023-06-14T00:09:22;8.50;;;3.72;;
60038;SDS011;45916;52.734;6.544;2023-06-14T00:11:48;9.10;;;4.00;;
60038;SDS011;45916;52.734;6.544;2023-06-14T00:14:14;7.15;;;3.50;;
60038;SDS011;45916;52.734;6.544;2023-06-14T00:16:40;6.82;;;3.45;;
60038;SDS011;45916;52.734;6.544;2023-06-14T00:19:08;5.93;;;3.72;;
60038;SDS011;45916;52.734;6.544;2023-06-14T00:21:35;6.65;;;3.28;;
60038;SDS011;45916;52.734;6.544;2023-06-14T00:24:01;8.38;;;3.35;;
60038;SDS011;45916;52.734;6.544;2023-06-14T00:26:27;7.03;;;3.35;;
60038;SDS011;45916;52.734;6.544;2023-06-14T00:28:53;6.82;;;3.60;;
60038;SDS011;45916;52.734;6.544;2023-06-14T00:31:19;6.55;;;3.40;;
60038;SDS011;45916;52.734;6.544;2023-06-14T00:33:45;7.97;;;3.72;;
60038;SDS011;45916;52.734;6.544;2023-06-14T00:36:11;6.55;;;3.55;;
60038;SDS011;45916;52.734;6.544;2023-06-14T00:38:37;8.55;;;3.80;;
60038;SDS011;45916;52.734;6.544;2023-06-14T00:41:03;7.35;;;4.40;;
60038;SDS011;45916;52.734;6.544;2023-06-14T00:43:29;8.52;;;3.40;;
60038;SDS011;45916;52.734;6.544;2023-06-14T00:45:54;6.03;;;3.30;;
60038;SDS011;45916;52.734;6.544;2023-06-14T00:48:20;6.55;;;3.45;;
60038;SDS011;45916;52.734;6.544;2023-06-14T00:50:47;8.07;;;3.25;;
60038;SDS011;45916;52.734;6.544;2023-06-14T00:53:17;8.40;;;3.92;;
60038;SDS011;45916;52.734;6.544;2023-06-14T00:55:43;5.90;;;3.35;;
60038;SDS011;45916;52.734;6.544;2023-06-14T00:58:09;6.93;;;3.53;;
60038;SDS011;45916;52.734;6.544;2023-06-14T01:00:36;7.53;;;3.45;;
60038;SDS011;45916;52.734;6.544;2023-06-14T01:03:02;8.15;;;3.70;;
60038;SDS011;45916;52.734;6.544;2023-06-14T01:05:28;9.13;;;3.67;;
60038;SDS011;45916;52.734;6.544;2023-06-14T01:10:47;8.15;;;3.63;;
60038;SDS011;45916;52.734;6.544;2023-06-14T01:13:21;6.68;;;3.60;;
60038;SDS011;45916;52.734;6.544;2023-06-14T01:15:53;7.53;;;3.80;;
60038;SDS011;45916;52.734;6.544;2023-06-14T01:18:20;7.17;;;3.73;;
60038;SDS011;45916;52.734;6.544;2023-06-14T01:20:50;7.75;;;3.85;;
60038;SDS011;45916;52.734;6.544;2023-06-14T01:23:18;6.90;;;3.93;;
60038;SDS011;45916;52.734;6.544;2023-06-14T01:25:45;5.82;;;3.13;;
60038;SDS011;45916;52.734;6.544;2023-06-14T01:28:12;7.60;;;3.72;;
60038;SDS011;45916;52.734;6.544;2023-06-14T01:30:43;6.72;;;3.97;;
60038;SDS011;45916;52.734;6.544;2023-06-14T01:33:16;10.05;;;4.10;;
60038;SDS011;45916;52.734;6.544;2023-06-14T01:35:45;5.80;;;3.15;;
60038;SDS011;45916;52.734;6.544;2023-06-14T01:38:12;5.85;;;3.22;;
60038;SDS011;45916;52.734;6.544;2023-06-14T01:40:39;7.00;;;3.90;;
60038;SDS011;45916;52.734;6.544;2023-06-14T01:43:08;8.25;;;3.97;;
60038;SDS011;45916;52.734;6.544;2023-06-14T01:45:35;6.97;;;3.30;;
60038;SDS011;45916;52.734;6.544;2023-06-14T01:48:02;7.65;;;4.25;;
60038;SDS011;45916;52.734;6.544;2023-06-14T01:50:29;6.90;;;4.38;;
60038;SDS011;45916;52.734;6.544;2023-06-14T01:52:56;7.67;;;3.70;;
60038;SDS011;45916;52.734;6.544;2023-06-14T01:55:22;7.20;;;3.90;;
60038;SDS011;45916;52.734;6.544;2023-06-14T01:57:49;9.02;;;4.57;;
60038;SDS011;45916;52.734;6.544;2023-06-14T02:00:16;8.10;;;3.80;;
60038;SDS011;45916;52.734;6.544;2023-06-14T02:02:43;6.57;;;4.13;;
60038;SDS011;45916;52.734;6.544;2023-06-14T02:05:09;7.18;;;4.25;;
60038;SDS011;45916;52.734;6.544;2023-06-14T02:07:35;7.13;;;3.88;;
60038;SDS011;45916;52.734;6.544;2023-06-14T02:10:02;8.02;;;4.25;;
60038;SDS011;45916;52.734;6.544;2023-06-14T02:12:28;10.35;;;4.90;;
60038;SDS011;45916;52.734;6.544;2023-06-14T02:14:54;9.18;;;4.90;;
60038;SDS011;45916;52.734;6.544;2023-06-14T02:17:21;8.27;;;4.43;;
60038;SDS011;45916;52.734;6.544;2023-06-14T02:19:47;6.85;;;4.20;;
60038;SDS011;45916;52.734;6.544;2023-06-14T02:22:13;8.85;;;4.32;;
60038;SDS011;45916;52.734;6.544;2023-06-14T02:24:40;7.57;;;3.75;;
60038;SDS011;45916;52.734;6.544;2023-06-14T02:27:07;9.50;;;4.70;;
60038;SDS011;45916;52.734;6.544;2023-06-14T02:32:01;7.47;;;4.10;;
60038;SDS011;45916;52.734;6.544;2023-06-14T02:34:26;8.10;;;5.15;;
60038;SDS011;45916;52.734;6.544;2023-06-14T02:36:52;7.97;;;4.78;;
60038;SDS011;45916;52.734;6.544;2023-06-14T02:39:18;9.20;;;5.15;;
60038;SDS011;45916;52.734;6.544;2023-06-14T02:41:46;7.85;;;4.50;;
60038;SDS011;45916;52.734;6.544;2023-06-14T02:44:13;8.70;;;4.70;;
60038;SDS011;45916;52.734;6.544;2023-06-14T02:46:39;9.48;;;4.50;;
60038;SDS011;45916;52.734;6.544;2023-06-14T02:49:04;7.22;;;4.82;;
60038;SDS011;45916;52.734;6.544;2023-06-14T02:51:30;9.38;;;4.47;;
60038;SDS011;45916;52.734;6.544;2023-06-14T02:53:56;8.73;;;4.75;;
60038;SDS011;45916;52.734;6.544;2023-06-14T02:56:22;7.57;;;4.53;;
60038;SDS011;45916;52.734;6.544;2023-06-14T02:58:48;7.72;;;4.78;;
60038;SDS011;45916;52.734;6.544;2023-06-14T03:01:13;9.95;;;4.35;;
60038;SDS011;45916;52.734;6.544;2023-06-14T03:03:39;8.82;;;5.15;;
60038;SDS011;45916;52.734;6.544;2023-06-14T03:06:05;8.02;;;5.22;;
60038;SDS011;45916;52.734;6.544;2023-06-14T03:08:33;8.35;;;4.90;;
60038;SDS011;45916;52.734;6.544;2023-06-14T03:11:03;7.78;;;4.38;;
60038;SDS011;45916;52.734;6.544;2023-06-14T03:13:34;10.02;;;5.40;;
60038;SDS011;45916;52.734;6.544;2023-06-14T03:16:00;9.50;;;5.03;;
60038;SDS011;45916;52.734;6.544;2023-06-14T03:18:28;8.50;;;4.50;;
60038;SDS011;45916;52.734;6.544;2023-06-14T03:20:55;7.85;;;5.00;;
60038;SDS011;45916;52.734;6.544;2023-06-14T03:23:26;7.75;;;5.13;;
60038;SDS011;45916;52.734;6.544;2023-06-14T03:25:52;11.27;;;4.97;;
60038;SDS011;45916;52.734;6.544;2023-06-14T03:28:17;7.72;;;4.57;;
60038;SDS011;45916;52.734;6.544;2023-06-14T03:30:43;9.95;;;5.65;;
60038;SDS011;45916;52.734;6.544;2023-06-14T03:33:09;7.93;;;4.90;;
60038;SDS011;45916;52.734;6.544;2023-06-14T03:35:35;7.55;;;4.70;;
60038;SDS011;45916;52.734;6.544;2023-06-14T03:38:01;7.53;;;4.85;;
60038;SDS011;45916;52.734;6.544;2023-06-14T03:40:28;7.25;;;4.13;;
60038;SDS011;45916;52.734;6.544;2023-06-14T03:42:54;8.35;;;4.90;;
60038;SDS011;45916;52.734;6.544;2023-06-14T03:45:20;9.77;;;5.53;;
60038;SDS011;45916;52.734;6.544;2023-06-14T03:47:46;15.55;;;6.18;;
60038;SDS011;45916;52.734;6.544;2023-06-14T03:50:12;7.47;;;4.55;;
60038;SDS011;45916;52.734;6.544;2023-06-14T03:52:38;8.77;;;4.93;;
60038;SDS011;45916;52.734;6.544;2023-06-14T03:55:04;9.55;;;4.63;;
60038;SDS011;45916;52.734;6.544;2023-06-14T03:57:30;8.18;;;4.40;;
60038;SDS011;45916;52.734;6.544;2023-06-14T03:59:56;6.93;;;4.78;;
60038;SDS011;45916;52.734;6.544;2023-06-14T04:02:22;9.55;;;4.95;;
60038;SDS011;45916;52.734;6.544;2023-06-14T04:04:48;7.13;;;4.40;;
60038;SDS011;45916;52.734;6.544;2023-06-14T04:07:14;9.20;;;4.68;;
60038;SDS011;45916;52.734;6.544;2023-06-14T04:09:44;11.35;;;4.85;;
60038;SDS011;45916;52.734;6.544;2023-06-14T04:12:10;8.25;;;5.30;;
60038;SDS011;45916;52.734;6.544;2023-06-14T04:14:36;7.25;;;4.05;;
60038;SDS011;45916;52.734;6.544;2023-06-14T04:17:03;8.70;;;4.68;;
60038;SDS011;45916;52.734;6.544;2023-06-14T04:19:29;7.65;;;4.90;;
60038;SDS011;45916;52.734;6.544;2023-06-14T04:21:54;9.10;;;4.57;;
60038;SDS011;45916;52.734;6.544;2023-06-14T04:24:20;8.20;;;4.43;;
60038;SDS011;45916;52.734;6.544;2023-06-14T04:26:46;9.32;;;4.63;;
60038;SDS011;45916;52.734;6.544;2023-06-14T04:29:16;7.60;;;4.50;;
60038;SDS011;45916;52.734;6.544;2023-06-14T04:31:44;8.13;;;4.30;;
60038;SDS011;45916;52.734;6.544;2023-06-14T04:34:11;7.80;;;4.85;;
60038;SDS011;45916;52.734;6.544;2023-06-14T04:36:41;7.88;;;4.47;;
60038;SDS011;45916;52.734;6.544;2023-06-14T04:39:17;9.43;;;4.78;;
60038;SDS011;45916;52.734;6.544;2023-06-14T04:41:43;8.77;;;4.82;;
60038;SDS011;45916;52.734;6.544;2023-06-14T04:44:09;7.60;;;4.70;;
60038;SDS011;45916;52.734;6.544;2023-06-14T04:46:36;7.05;;;4.63;;
60038;SDS011;45916;52.734;6.544;2023-06-14T04:49:14;9.57;;;5.05;;
60038;SDS011;45916;52.734;6.544;2023-06-14T04:51:44;6.30;;;4.55;;
60038;SDS011;45916;52.734;6.544;2023-06-14T04:54:11;7.22;;;4.72;;
60038;SDS011;45916;52.734;6.544;2023-06-14T04:56:43;8.88;;;4.50;;
60038;SDS011;45916;52.734;6.544;2023-06-14T04:59:10;7.45;;;4.85;;
60038;SDS011;45916;52.734;6.544;2023-06-14T05:01:40;6.72;;;4.38;;
60038;SDS011;45916;52.734;6.544;2023-06-14T05:04:05;8.05;;;4.85;;
60038;SDS011;45916;52.734;6.544;2023-06-14T05:06:31;7.88;;;4.75;;
60038;SDS011;45916;52.734;6.544;2023-06-14T05:08:58;7.97;;;4.40;;
60038;SDS011;45916;52.734;6.544;2023-06-14T05:11:24;8.45;;;4.80;;
60038;SDS011;45916;52.734;6.544;2023-06-14T05:13:49;6.40;;;4.25;;
60038;SDS011;45916;52.734;6.544;2023-06-14T05:16:16;7.50;;;4.32;;
60038;SDS011;45916;52.734;6.544;2023-06-14T05:18:44;6.25;;;3.97;;
60038;SDS011;45916;52.734;6.544;2023-06-14T05:23:38;7.13;;;4.20;;
60038;SDS011;45916;52.734;6.544;2023-06-14T05:26:03;8.30;;;4.70;;
60038;SDS011;45916;52.734;6.544;2023-06-14T05:28:30;8.07;;;4.25;;
60038;SDS011;45916;52.734;6.544;2023-06-14T05:30:56;9.40;;;5.07;;
60038;SDS011;45916;52.734;6.544;2023-06-14T05:33:23;7.38;;;4.00;;
60038;SDS011;45916;52.734;6.544;2023-06-14T05:35:48;6.40;;;4.60;;
60038;SDS011;45916;52.734;6.544;2023-06-14T05:38:15;6.47;;;4.28;;
60038;SDS011;45916;52.734;6.544;2023-06-14T05:40:40;7.75;;;4.60;;
60038;SDS011;45916;52.734;6.544;2023-06-14T05:43:06;8.05;;;4.20;;
60038;SDS011;45916;52.734;6.544;2023-06-14T05:45:32;7.90;;;4.63;;
60038;SDS011;45916;52.734;6.544;2023-06-14T05:47:57;6.97;;;4.63;;
60038;SDS011;45916;52.734;6.544;2023-06-14T05:50:23;7.03;;;4.70;;
60038;SDS011;45916;52.734;6.544;2023-06-14T05:52:49;8.20;;;4.53;;
60038;SDS011;45916;52.734;6.544;2023-06-14T05:55:15;8.40;;;5.15;;
60038;SDS011;45916;52.734;6.544;2023-06-14T05:57:42;6.95;;;4.13;;
60038;SDS011;45916;52.734;6.544;2023-06-14T06:00:08;8.23;;;4.28;;
60038;SDS011;45916;52.734;6.544;2023-06-14T06:02:40;6.95;;;4.20;;
60038;SDS011;45916;52.734;6.544;2023-06-14T06:05:08;8.80;;;3.95;;
60038;SDS011;45916;52.734;6.544;2023-06-14T06:07:35;8.27;;;4.20;;
60038;SDS011;45916;52.734;6.544;2023-06-14T06:10:01;8.05;;;4.80;;
60038;SDS011;45916;52.734;6.544;2023-06-14T06:12:27;6.65;;;3.80;;
60038;SDS011;45916;52.734;6.544;2023-06-14T06:14:53;8.38;;;4.28;;
60038;SDS011;45916;52.734;6.544;2023-06-14T06:17:18;6.85;;;4.00;;
60038;SDS011;45916;52.734;6.544;2023-06-14T06:19:44;6.57;;;3.33;;
60038;SDS011;45916;52.734;6.544;2023-06-14T06:22:10;9.20;;;3.65;;
60038;SDS011;45916;52.734;6.544;2023-06-14T06:24:36;7.82;;;3.95;;
60038;SDS011;45916;52.734;6.544;2023-06-14T06:27:02;6.85;;;3.45;;
60038;SDS011;45916;52.734;6.544;2023-06-14T06:29:28;6.97;;;3.58;;
60038;SDS011;45916;52.734;6.544;2023-06-14T06:31:54;6.47;;;3.00;;
60038;SDS011;45916;52.734;6.544;2023-06-14T06:34:21;8.73;;;4.22;;
60038;SDS011;45916;52.734;6.544;2023-06-14T06:36:47;8.32;;;3.58;;
60038;SDS011;45916;52.734;6.544;2023-06-14T06:39:13;7.70;;;3.15;;
60038;SDS011;45916;52.734;6.544;2023-06-14T06:41:40;7.78;;;2.83;;
60038;SDS011;45916;52.734;6.544;2023-06-14T06:44:06;6.43;;;3.38;;
60038;SDS011;45916;52.734;6.544;2023-06-14T06:46:32;5.57;;;3.30;;
60038;SDS011;45916;52.734;6.544;2023-06-14T06:48:59;6.63;;;3.30;;
60038;SDS011;45916;52.734;6.544;2023-06-14T06:51:25;6.65;;;3.00;;
60038;SDS011;45916;52.734;6.544;2023-06-14T06:53:52;6.10;;;3.50;;
60038;SDS011;45916;52.734;6.544;2023-06-14T06:56:21;5.65;;;3.10;;
60038;SDS011;45916;52.734;6.544;2023-06-14T06:58:51;4.95;;;2.90;;
60038;SDS011;45916;52.734;6.544;2023-06-14T07:01:17;6.95;;;3.30;;
60038;SDS011;45916;52.734;6.544;2023-06-14T07:03:44;7.00;;;3.20;;
60038;SDS011;45916;52.734;6.544;2023-06-14T07:06:11;6.22;;;3.30;;
60038;SDS011;45916;52.734;6.544;2023-06-14T07:08:37;7.00;;;3.45;;
60038;SDS011;45916;52.734;6.544;2023-06-14T07:11:03;6.88;;;3.55;;
60038;SDS011;45916;52.734;6.544;2023-06-14T07:13:30;12.13;;;3.60;;
60038;SDS011;45916;52.734;6.544;2023-06-14T07:15:59;7.05;;;3.30;;
60038;SDS011;45916;52.734;6.544;2023-06-14T07:18:25;6.03;;;2.92;;
60038;SDS011;45916;52.734;6.544;2023-06-14T07:20:52;5.97;;;3.10;;
60038;SDS011;45916;52.734;6.544;2023-06-14T07:23:21;6.63;;;3.00;;
60038;SDS011;45916;52.734;6.544;2023-06-14T07:25:46;6.75;;;3.17;;
60038;SDS011;45916;52.734;6.544;2023-06-14T07:28:12;6.85;;;3.08;;
60038;SDS011;45916;52.734;6.544;2023-06-14T07:30:38;6.38;;;2.78;;
60038;SDS011;45916;52.734;6.544;2023-06-14T07:33:03;6.47;;;2.83;;
60038;SDS011;45916;52.734;6.544;2023-06-14T07:35:29;6.93;;;2.97;;
60038;SDS011;45916;52.734;6.544;2023-06-14T07:37:55;5.63;;;2.83;;
60038;SDS011;45916;52.734;6.544;2023-06-14T07:40:21;7.50;;;3.95;;
60038;SDS011;45916;52.734;6.544;2023-06-14T07:42:46;5.88;;;2.80;;
60038;SDS011;45916;52.734;6.544;2023-06-14T07:45:15;5.13;;;3.00;;
60038;SDS011;45916;52.734;6.544;2023-06-14T07:47:41;5.80;;;3.05;;
60038;SDS011;45916;52.734;6.544;2023-06-14T07:50:07;5.40;;;3.10;;
60038;SDS011;45916;52.734;6.544;2023-06-14T07:52:34;9.20;;;3.03;;
60038;SDS011;45916;52.734;6.544;2023-06-14T07:54:59;4.75;;;2.33;;
60038;SDS011;45916;52.734;6.544;2023-06-14T07:57:25;5.40;;;2.70;;
60038;SDS011;45916;52.734;6.544;2023-06-14T07:59:51;6.88;;;2.45;;
60038;SDS011;45916;52.734;6.544;2023-06-14T08:02:17;5.55;;;2.95;;
60038;SDS011;45916;52.734;6.544;2023-06-14T08:04:43;7.13;;;3.17;;
60038;SDS011;45916;52.734;6.544;2023-06-14T08:07:09;5.68;;;2.92;;
60038;SDS011;45916;52.734;6.544;2023-06-14T08:09:35;6.05;;;2.70;;
60038;SDS011;45916;52.734;6.544;2023-06-14T08:14:38;4.95;;;2.50;;
60038;SDS011;45916;52.734;6.544;2023-06-14T08:17:04;4.50;;;2.55;;
60038;SDS011;45916;52.734;6.544;2023-06-14T08:19:30;5.15;;;2.55;;
60038;SDS011;45916;52.734;6.544;2023-06-14T08:21:56;6.63;;;2.55;;
60038;SDS011;45916;52.734;6.544;2023-06-14T08:24:22;4.90;;;2.22;;
60038;SDS011;45916;52.734;6.544;2023-06-14T08:26:55;5.25;;;2.58;;
60038;SDS011;45916;52.734;6.544;2023-06-14T08:29:21;5.30;;;2.63;;
60038;SDS011;45916;52.734;6.544;2023-06-14T08:31:47;5.28;;;2.35;;
60038;SDS011;45916;52.734;6.544;2023-06-14T08:34:13;5.47;;;2.22;;
60038;SDS011;45916;52.734;6.544;2023-06-14T08:36:39;4.95;;;2.83;;
60038;SDS011;45916;52.734;6.544;2023-06-14T08:39:05;5.50;;;2.03;;
60038;SDS011;45916;52.734;6.544;2023-06-14T08:41:31;5.15;;;2.60;;
60038;SDS011;45916;52.734;6.544;2023-06-14T08:43:58;5.15;;;1.88;;
60038;SDS011;45916;52.734;6.544;2023-06-14T08:46:25;6.22;;;2.17;;
60038;SDS011;45916;52.734;6.544;2023-06-14T08:48:52;5.82;;;2.53;;
60038;SDS011;45916;52.734;6.544;2023-06-14T08:51:24;5.05;;;2.20;;
60038;SDS011;45916;52.734;6.544;2023-06-14T08:53:55;5.20;;;2.42;;
60038;SDS011;45916;52.734;6.544;2023-06-14T08:56:32;5.18;;;2.33;;
60038;SDS011;45916;52.734;6.544;2023-06-14T08:59:01;6.25;;;2.60;;
60038;SDS011;45916;52.734;6.544;2023-06-14T09:01:30;5.03;;;2.47;;
60038;SDS011;45916;52.734;6.544;2023-06-14T09:03:59;4.18;;;1.92;;
60038;SDS011;45916;52.734;6.544;2023-06-14T09:06:25;5.82;;;2.22;;
60038;SDS011;45916;52.734;6.544;2023-06-14T09:08:53;4.82;;;2.42;;
60038;SDS011;45916;52.734;6.544;2023-06-14T09:11:22;5.40;;;2.28;;
60038;SDS011;45916;52.734;6.544;2023-06-14T09:13:48;4.93;;;2.15;;
60038;SDS011;45916;52.734;6.544;2023-06-14T09:16:15;4.93;;;1.80;;
60038;SDS011;45916;52.734;6.544;2023-06-14T09:18:45;6.28;;;1.85;;
60038;SDS011;45916;52.734;6.544;2023-06-14T09:21:15;3.83;;;1.90;;
60038;SDS011;45916;52.734;6.544;2023-06-14T09:23:43;5.50;;;2.33;;
60038;SDS011;45916;52.734;6.544;2023-06-14T09:26:11;4.50;;;2.15;;
60038;SDS011;45916;52.734;6.544;2023-06-14T09:28:46;4.72;;;2.00;;
60038;SDS011;45916;52.734;6.544;2023-06-14T09:31:17;5.13;;;2.20;;
60038;SDS011;45916;52.734;6.544;2023-06-14T09:33:47;4.80;;;2.10;;
60038;SDS011;45916;52.734;6.544;2023-06-14T09:36:18;4.88;;;2.00;;
60038;SDS011;45916;52.734;6.544;2023-06-14T09:41:19;6.00;;;1.80;;
60038;SDS011;45916;52.734;6.544;2023-06-14T09:43:46;3.65;;;1.60;;
60038;SDS011;45916;52.734;6.544;2023-06-14T09:46:12;4.15;;;1.52;;
60038;SDS011;45916;52.734;6.544;2023-06-14T09:48:38;3.37;;;1.50;;
60038;SDS011;45916;52.734;6.544;2023-06-14T09:51:09;4.45;;;1.98;;
60038;SDS011;45916;52.734;6.544;2023-06-14T09:53:38;4.65;;;1.60;;
60038;SDS011;45916;52.734;6.544;2023-06-14T09:56:06;4.22;;;1.63;;
60038;SDS011;45916;52.734;6.544;2023-06-14T09:58:32;4.18;;;1.70;;
60038;SDS011;45916;52.734;6.544;2023-06-14T10:01:04;7.78;;;1.67;;
60038;SDS011;45916;52.734;6.544;2023-06-14T10:03:33;5.10;;;1.70;;
60038;SDS011;45916;52.734;6.544;2023-06-14T10:06:02;5.28;;;2.20;;
60038;SDS011;45916;52.734;6.544;2023-06-14T10:08:33;6.30;;;2.22;;
60038;SDS011;45916;52.734;6.544;2023-06-14T10:11:02;4.30;;;1.75;;
60038;SDS011;45916;52.734;6.544;2023-06-14T10:13:28;4.78;;;1.90;;
60038;SDS011;45916;52.734;6.544;2023-06-14T10:22:01;4.18;;;1.48;;
60038;SDS011;45916;52.734;6.544;2023-06-14T10:24:42;6.03;;;2.00;;
60038;SDS011;45916;52.734;6.544;2023-06-14T10:27:09;4.38;;;1.77;;
60038;SDS011;45916;52.734;6.544;2023-06-14T10:32:26;7.20;;;1.80;;
60038;SDS011;45916;52.734;6.544;2023-06-14T10:34:56;5.07;;;1.77;;
60038;SDS011;45916;52.734;6.544;2023-06-14T10:37:25;4.65;;;1.80;;
60038;SDS011;45916;52.734;6.544;2023-06-14T10:39:51;6.65;;;2.25;;
60038;SDS011;45916;52.734;6.544;2023-06-14T10:42:18;4.83;;;1.80;;
60038;SDS011;45916;52.734;6.544;2023-06-14T10:47:24;6.05;;;2.05;;
60038;SDS011;45916;52.734;6.544;2023-06-14T10:52:40;3.63;;;1.40;;
60038;SDS011;45916;52.734;6.544;2023-06-14T11:00:20;5.03;;;1.70;;
60038;SDS011;45916;52.734;6.544;2023-06-14T11:05:42;6.93;;;1.88;;
60038;SDS011;45916;52.734;6.544;2023-06-14T11:13:25;4.30;;;1.65;;
60038;SDS011;45916;52.734;6.544;2023-06-14T11:15:51;4.95;;;1.85;;
60038;SDS011;45916;52.734;6.544;2023-06-14T11:18:22;5.55;;;1.90;;
60038;SDS011;45916;52.734;6.544;2023-06-14T11:20:54;5.75;;;2.00;;
60038;SDS011;45916;52.734;6.544;2023-06-14T11:23:21;5.57;;;2.20;;
60038;SDS011;45916;52.734;6.544;2023-06-14T11:25:53;6.07;;;2.47;;
60038;SDS011;45916;52.734;6.544;2023-06-14T11:28:19;4.85;;;1.92;;
60038;SDS011;45916;52.734;6.544;2023-06-14T11:30:46;4.15;;;1.88;;
60038;SDS011;45916;52.734;6.544;2023-06-14T11:33:24;6.25;;;1.77;;
60038;SDS011;45916;52.734;6.544;2023-06-14T11:35:50;4.53;;;1.77;;
60038;SDS011;45916;52.734;6.544;2023-06-14T11:38:17;5.47;;;1.80;;
60038;SDS011;45916;52.734;6.544;2023-06-14T11:40:43;5.88;;;1.90;;
60038;SDS011;45916;52.734;6.544;2023-06-14T11:43:08;6.43;;;2.15;;
60038;SDS011;45916;52.734;6.544;2023-06-14T11:45:35;4.20;;;1.90;;
60038;SDS011;45916;52.734;6.544;2023-06-14T11:48:00;4.70;;;1.85;;
60038;SDS011;45916;52.734;6.544;2023-06-14T11:50:26;4.53;;;2.00;;
60038;SDS011;45916;52.734;6.544;2023-06-14T11:52:56;5.40;;;2.10;;
60038;SDS011;45916;52.734;6.544;2023-06-14T11:55:32;5.80;;;2.40;;
60038;SDS011;45916;52.734;6.544;2023-06-14T11:58:02;6.97;;;2.10;;
60038;SDS011;45916;52.734;6.544;2023-06-14T12:00:28;5.25;;;2.42;;
60038;SDS011;45916;52.734;6.544;2023-06-14T12:02:54;5.57;;;2.17;;
60038;SDS011;45916;52.734;6.544;2023-06-14T12:05:21;5.72;;;2.22;;
60038;SDS011;45916;52.734;6.544;2023-06-14T12:07:48;5.97;;;2.25;;
60038;SDS011;45916;52.734;6.544;2023-06-14T12:10:15;6.20;;;2.53;;
60038;SDS011;45916;52.734;6.544;2023-06-14T12:12:42;7.32;;;2.47;;
60038;SDS011;45916;52.734;6.544;2023-06-14T12:15:08;4.75;;;2.20;;
60038;SDS011;45916;52.734;6.544;2023-06-14T12:17:36;6.22;;;2.38;;
60038;SDS011;45916;52.734;6.544;2023-06-14T12:20:07;4.88;;;2.25;;
60038;SDS011;45916;52.734;6.544;2023-06-14T12:23:00;5.13;;;2.30;;
60038;SDS011;45916;52.734;6.544;2023-06-14T12:25:27;5.50;;;2.38;;
60038;SDS011;45916;52.734;6.544;2023-06-14T12:27:55;4.15;;;2.10;;
60038;SDS011;45916;52.734;6.544;2023-06-14T12:30:21;5.00;;;2.45;;
60038;SDS011;45916;52.734;6.544;2023-06-14T12:32:47;3.42;;;1.90;;
60038;SDS011;45916;52.734;6.544;2023-06-14T12:35:13;6.47;;;2.60;;
60038;SDS011;45916;52.734;6.544;2023-06-14T12:37:40;5.85;;;2.75;;
60038;SDS011;45916;52.734;6.544;2023-06-14T12:40:06;4.40;;;2.15;;
60038;SDS011;45916;52.734;6.544;2023-06-14T12:42:32;5.70;;;2.37;;
60038;SDS011;45916;52.734;6.544;2023-06-14T12:44:59;6.22;;;2.00;;
60038;SDS011;45916;52.734;6.544;2023-06-14T12:47:25;4.78;;;2.20;;
60038;SDS011;45916;52.734;6.544;2023-06-14T12:49:50;4.05;;;1.95;;
60038;SDS011;45916;52.734;6.544;2023-06-14T12:52:16;5.47;;;2.60;;
60038;SDS011;45916;52.734;6.544;2023-06-14T12:54:42;5.57;;;2.20;;
60038;SDS011;45916;52.734;6.544;2023-06-14T12:57:08;5.55;;;2.10;;
60038;SDS011;45916;52.734;6.544;2023-06-14T12:59:34;5.82;;;3.08;;
60038;SDS011;45916;52.734;6.544;2023-06-14T13:04:56;5.50;;;2.40;;
60038;SDS011;45916;52.734;6.544;2023-06-14T13:07:24;5.30;;;2.47;;
60038;SDS011;45916;52.734;6.544;2023-06-14T13:09:50;4.65;;;2.33;;
60038;SDS011;45916;52.734;6.544;2023-06-14T13:12:15;6.07;;;2.60;;
60038;SDS011;45916;52.734;6.544;2023-06-14T13:14:41;5.90;;;2.35;;
60038;SDS011;45916;52.734;6.544;2023-06-14T13:17:10;6.57;;;2.70;;
60038;SDS011;45916;52.734;6.544;2023-06-14T13:19:36;5.40;;;2.35;;
60038;SDS011;45916;52.734;6.544;2023-06-14T13:22:02;5.55;;;2.47;;
60038;SDS011;45916;52.734;6.544;2023-06-14T13:24:28;4.40;;;2.35;;
60038;SDS011;45916;52.734;6.544;2023-06-14T13:26:55;4.30;;;2.30;;
60038;SDS011;45916;52.734;6.544;2023-06-14T13:29:22;5.60;;;2.65;;
60038;SDS011;45916;52.734;6.544;2023-06-14T13:31:48;5.45;;;2.17;;
60038;SDS011;45916;52.734;6.544;2023-06-14T13:34:14;5.70;;;2.53;;
60038;SDS011;45916;52.734;6.544;2023-06-14T13:36:39;4.82;;;2.10;;
60038;SDS011;45916;52.734;6.544;2023-06-14T13:39:05;5.38;;;2.42;;
60038;SDS011;45916;52.734;6.544;2023-06-14T13:41:31;3.95;;;2.10;;
60038;SDS011;45916;52.734;6.544;2023-06-14T13:43:59;4.88;;;2.40;;
60038;SDS011;45916;52.734;6.544;2023-06-14T13:46:26;6.65;;;2.97;;
60038;SDS011;45916;52.734;6.544;2023-06-14T13:48:52;4.85;;;2.50;;
60038;SDS011;45916;52.734;6.544;2023-06-14T13:51:18;3.65;;;2.13;;
60038;SDS011;45916;52.734;6.544;2023-06-14T13:53:50;5.88;;;2.78;;
60038;SDS011;45916;52.734;6.544;2023-06-14T13:56:16;5.63;;;2.33;;
60038;SDS011;45916;52.734;6.544;2023-06-14T13:58:42;6.35;;;2.30;;
60038;SDS011;45916;52.734;6.544;2023-06-14T14:01:08;5.00;;;2.70;;
60038;SDS011;45916;52.734;6.544;2023-06-14T14:03:34;4.82;;;2.55;;
60038;SDS011;45916;52.734;6.544;2023-06-14T14:06:01;5.07;;;2.30;;
60038;SDS011;45916;52.734;6.544;2023-06-14T14:08:27;5.93;;;2.37;;
60038;SDS011;45916;52.734;6.544;2023-06-14T14:10:53;6.50;;;2.63;;
60038;SDS011;45916;52.734;6.544;2023-06-14T14:13:19;5.13;;;2.20;;
60038;SDS011;45916;52.734;6.544;2023-06-14T14:15:46;5.60;;;2.78;;
60038;SDS011;45916;52.734;6.544;2023-06-14T14:18:12;5.85;;;2.17;;
60038;SDS011;45916;52.734;6.544;2023-06-14T14:20:37;6.85;;;2.42;;
60038;SDS011;45916;52.734;6.544;2023-06-14T14:23:03;4.75;;;2.25;;
60038;SDS011;45916;52.734;6.544;2023-06-14T14:25:29;5.75;;;2.13;;
60038;SDS011;45916;52.734;6.544;2023-06-14T14:27:55;4.82;;;2.30;;
60038;SDS011;45916;52.734;6.544;2023-06-14T14:30:21;5.78;;;2.15;;
60038;SDS011;45916;52.734;6.544;2023-06-14T14:32:48;4.60;;;2.10;;
60038;SDS011;45916;52.734;6.544;2023-06-14T14:35:16;5.10;;;2.50;;
60038;SDS011;45916;52.734;6.544;2023-06-14T14:37:42;4.70;;;2.80;;
60038;SDS011;45916;52.734;6.544;2023-06-14T14:40:08;4.50;;;2.45;;
60038;SDS011;45916;52.734;6.544;2023-06-14T14:42:35;5.25;;;2.45;;
60038;SDS011;45916;52.734;6.544;2023-06-14T14:45:02;4.80;;;2.30;;
60038;SDS011;45916;52.734;6.544;2023-06-14T14:47:28;4.57;;;2.10;;
60038;SDS011;45916;52.734;6.544;2023-06-14T14:49:54;4.32;;;2.30;;
60038;SDS011;45916;52.734;6.544;2023-06-14T14:52:20;4.88;;;2.20;;
60038;SDS011;45916;52.734;6.544;2023-06-14T14:54:46;5.22;;;2.85;;
60038;SDS011;45916;52.734;6.544;2023-06-14T14:57:11;9.02;;;2.88;;
60038;SDS011;45916;52.734;6.544;2023-06-14T14:59:37;5.38;;;2.50;;
60038;SDS011;45916;52.734;6.544;2023-06-14T15:02:03;4.85;;;2.10;;
60038;SDS011;45916;52.734;6.544;2023-06-14T15:04:29;5.63;;;2.83;;
60038;SDS011;45916;52.734;6.544;2023-06-14T15:06:55;6.45;;;2.88;;
60038;SDS011;45916;52.734;6.544;2023-06-14T15:09:22;7.13;;;2.80;;
60038;SDS011;45916;52.734;6.544;2023-06-14T15:11:47;6.20;;;2.75;;
60038;SDS011;45916;52.734;6.544;2023-06-14T15:14:13;7.13;;;3.08;;
60038;SDS011;45916;52.734;6.544;2023-06-14T15:16:40;5.20;;;2.42;;
60038;SDS011;45916;52.734;6.544;2023-06-14T15:19:05;5.13;;;2.25;;
60038;SDS011;45916;52.734;6.544;2023-06-14T15:21:31;5.75;;;2.40;;
60038;SDS011;45916;52.734;6.544;2023-06-14T15:23:57;6.15;;;2.33;;
60038;SDS011;45916;52.734;6.544;2023-06-14T15:26:22;5.05;;;2.55;;
60038;SDS011;45916;52.734;6.544;2023-06-14T15:28:49;5.15;;;2.45;;
60038;SDS011;45916;52.734;6.544;2023-06-14T15:31:15;5.07;;;2.45;;